createdAt,value
2022-12-25T00:01:47.842Z,62.99
2022-12-25T00:04:33.023Z,64.22
2022-12-25T00:07:17.945Z,64.06
2022-12-25T00:10:02.603Z,64.54
2022-12-25T00:12:47.420Z,66.76
2022-12-25T00:15:32.147Z,67.01
2022-12-25T00:18:16.961Z,67.38
2022-12-25T00:21:01.666Z,70.47
2022-12-25T00:23:46.354Z,68.63
2022-12-25T00:26:30.995Z,69.24
2022-12-25T00:29:15.710Z,70.75
2022-12-25T00:32:00.482Z,70.81
2022-12-25T00:34:45.675Z,70.31
2022-12-25T00:37:30.416Z,70.65
2022-12-25T00:40:15.213Z,71.22
2022-12-25T00:42:59.990Z,70.17
2022-12-25T00:45:44.783Z,71.70
2022-12-25T00:48:29.553Z,72.66
2022-12-25T00:51:14.265Z,72.55
2022-12-25T00:53:59.125Z,71.90
2022-12-25T00:56:43.817Z,71.54
2022-12-25T00:59:29.775Z,72.14
2022-12-25T01:02:14.489Z,73.74
2022-12-25T01:04:59.612Z,74.82
2022-12-25T01:07:44.491Z,75.85
2022-12-25T01:10:29.130Z,76.12
2022-12-25T01:13:13.823Z,75.25
2022-12-25T01:15:58.492Z,75.61
2022-12-25T01:18:43.416Z,82.17
2022-12-25T01:21:28.065Z,80.95
2022-12-25T01:24:12.833Z,84.97
2022-12-25T01:26:57.528Z,71.67
2022-12-25T01:29:42.241Z,71.20
2022-12-25T01:32:26.970Z,68.08
2022-12-25T01:35:11.919Z,80.36
2022-12-25T01:37:56.732Z,76.21
2022-12-25T01:40:41.679Z,72.19
2022-12-25T01:43:26.566Z,71.33
2022-12-25T01:46:11.324Z,63.20
2022-12-25T01:48:56.101Z,65.37
2022-12-25T01:51:40.736Z,66.31
2022-12-25T01:54:25.573Z,71.31
2022-12-25T01:57:10.195Z,73.39
2022-12-25T01:59:55.132Z,73.97
2022-12-25T02:02:40.169Z,65.77
2022-12-25T02:05:25.341Z,66.47
2022-12-25T02:08:10.306Z,65.60
2022-12-25T02:10:54.993Z,70.33
2022-12-25T02:13:39.764Z,67.38
2022-12-25T02:16:24.439Z,62.08
2022-12-25T02:19:09.473Z,61.87
2022-12-25T02:21:54.225Z,59.22
2022-12-25T02:24:39.092Z,55.62
2022-12-25T02:27:23.759Z,53.72
2022-12-25T02:30:08.529Z,52.61
2022-12-25T02:32:53.308Z,52.99
2022-12-25T02:35:39.053Z,52.32
2022-12-25T02:38:24.496Z,44.96
2022-12-25T02:41:09.238Z,47.25
2022-12-25T02:43:53.954Z,51.03
2022-12-25T02:46:38.657Z,53.70
2022-12-25T02:49:23.362Z,55.02
2022-12-25T02:52:08.070Z,57.52
2022-12-25T02:54:52.912Z,58.80
2022-12-25T02:57:37.876Z,59.08
2022-12-25T03:00:23.250Z,61.35
2022-12-25T03:03:08.169Z,62.94
2022-12-25T03:05:53.294Z,63.74
2022-12-25T03:08:38.307Z,63.93
2022-12-25T03:11:22.950Z,64.09
2022-12-25T03:14:07.778Z,65.27
2022-12-25T03:16:52.600Z,65.66
2022-12-25T03:19:37.487Z,65.20
2022-12-25T03:22:22.185Z,65.23
2022-12-25T03:25:06.935Z,65.85
2022-12-25T03:27:51.803Z,65.38
2022-12-25T03:30:36.734Z,65.08
2022-12-25T03:33:43.887Z,65.28
2022-12-25T03:36:26.951Z,65.75
2022-12-25T03:39:11.707Z,66.28
2022-12-25T03:41:56.560Z,66.85
2022-12-25T03:44:41.259Z,66.08
2022-12-25T03:47:26.086Z,65.70
2022-12-25T03:50:10.870Z,65.98
2022-12-25T03:52:55.765Z,65.70
2022-12-25T03:55:40.342Z,65.66
2022-12-25T03:58:25.169Z,65.72
2022-12-25T04:01:10.067Z,65.79
2022-12-25T04:03:54.824Z,65.95
2022-12-25T04:06:39.588Z,65.64
2022-12-25T04:09:24.354Z,65.33
2022-12-25T04:12:08.968Z,65.03
2022-12-25T04:14:54.332Z,64.26
2022-12-25T04:17:39.130Z,64.86
2022-12-25T04:20:23.703Z,65.13
2022-12-25T04:23:08.422Z,65.67
2022-12-25T04:25:53.116Z,65.34
2022-12-25T04:28:38.318Z,65.99
2022-12-25T04:31:24.183Z,65.99
2022-12-25T04:34:09.278Z,65.81
2022-12-25T04:36:54.089Z,66.18
2022-12-25T04:39:38.820Z,66.17
2022-12-25T04:42:24.661Z,65.98
2022-12-25T04:45:09.350Z,65.72
2022-12-25T04:47:54.163Z,66.02
2022-12-25T04:50:39.056Z,65.97
2022-12-25T04:53:23.822Z,65.87
2022-12-25T04:56:08.717Z,65.34
2022-12-25T04:58:53.410Z,65.54
2022-12-25T05:01:38.172Z,65.53
2022-12-25T05:04:23.367Z,64.93
2022-12-25T05:07:08.166Z,64.49
2022-12-25T05:09:52.868Z,65.23
2022-12-25T05:12:37.555Z,64.49
2022-12-25T05:15:22.399Z,64.00
2022-12-25T05:18:07.284Z,63.38
2022-12-25T05:20:52.022Z,63.43
2022-12-25T05:23:36.808Z,63.85
2022-12-25T05:26:21.681Z,63.53
2022-12-25T05:29:06.366Z,63.37
2022-12-25T05:31:51.261Z,63.79
2022-12-25T05:34:35.809Z,63.97
2022-12-25T05:37:20.638Z,63.67
2022-12-25T05:40:05.247Z,63.34
2022-12-25T05:42:49.924Z,63.84
2022-12-25T05:45:34.678Z,64.22
2022-12-25T05:48:19.403Z,64.19
2022-12-25T05:51:04.173Z,64.15
2022-12-25T05:53:48.935Z,64.51
2022-12-25T05:56:33.828Z,64.20
2022-12-25T05:59:18.650Z,64.86
2022-12-25T06:02:03.602Z,65.54
2022-12-25T06:04:48.778Z,64.83
2022-12-25T06:07:33.602Z,64.69
2022-12-25T06:10:18.369Z,64.51
2022-12-25T06:13:03.093Z,64.85
2022-12-25T06:15:47.750Z,64.48
2022-12-25T06:18:32.531Z,64.04
2022-12-25T06:21:17.341Z,64.18
2022-12-25T06:24:02.200Z,64.03
2022-12-25T06:26:47.397Z,63.38
2022-12-25T06:29:32.089Z,63.41
2022-12-25T06:32:16.997Z,63.11
2022-12-25T06:35:01.677Z,62.67
2022-12-25T06:37:46.545Z,63.03
2022-12-25T06:40:31.214Z,63.16
2022-12-25T06:43:16.074Z,62.46
2022-12-25T06:46:00.907Z,62.67
2022-12-25T06:48:45.697Z,62.27
2022-12-25T06:51:30.496Z,62.76
2022-12-25T06:54:15.276Z,62.48
2022-12-25T06:57:00.017Z,62.17
2022-12-25T06:59:48.434Z,62.02
2022-12-25T07:02:36.143Z,62.92
2022-12-25T07:05:21.393Z,62.49
2022-12-25T07:08:06.084Z,62.29
2022-12-25T07:10:50.842Z,62.20
2022-12-25T07:13:35.456Z,62.53
2022-12-25T07:16:20.344Z,62.92
2022-12-25T07:19:05.509Z,62.84
2022-12-25T07:21:50.239Z,62.26
2022-12-25T07:24:35.049Z,62.13
2022-12-25T07:27:19.703Z,61.97
2022-12-25T07:30:04.543Z,61.93
2022-12-25T07:32:50.338Z,61.92
2022-12-25T07:35:35.659Z,62.55
2022-12-25T07:38:20.253Z,62.17
2022-12-25T07:41:05.044Z,62.60
2022-12-25T07:43:49.805Z,62.44
2022-12-25T07:46:34.521Z,62.30
2022-12-25T07:49:19.291Z,62.15
2022-12-25T07:52:03.916Z,61.56
2022-12-25T07:54:48.696Z,61.45
2022-12-25T07:57:33.462Z,61.14
2022-12-25T08:00:18.416Z,60.85
2022-12-25T08:03:03.130Z,61.82
2022-12-25T08:05:48.381Z,61.13
2022-12-25T08:08:33.173Z,60.91
2022-12-25T08:11:17.864Z,60.58
2022-12-25T08:14:02.668Z,60.48
2022-12-25T08:16:47.558Z,60.20
2022-12-25T08:19:32.771Z,60.50
2022-12-25T08:22:17.511Z,60.79
2022-12-25T08:25:02.388Z,60.19
2022-12-25T08:27:47.033Z,59.63
2022-12-25T08:30:31.961Z,59.98
2022-12-25T08:33:16.548Z,60.33
2022-12-25T08:36:01.367Z,58.58
2022-12-25T08:38:46.122Z,59.91
2022-12-25T08:41:30.935Z,60.79
2022-12-25T08:44:15.725Z,57.88
2022-12-25T08:47:00.457Z,59.39
2022-12-25T08:49:45.301Z,59.73
2022-12-25T08:52:30.577Z,59.09
2022-12-25T08:55:15.356Z,59.00
2022-12-25T08:58:00.121Z,58.81
2022-12-25T09:00:44.981Z,59.02
2022-12-25T09:03:29.614Z,57.53
2022-12-25T09:06:14.324Z,56.86
2022-12-25T09:08:59.255Z,55.62
2022-12-25T09:11:44.009Z,55.22
2022-12-25T09:14:28.636Z,55.54
2022-12-25T09:17:13.401Z,56.44
2022-12-25T09:19:58.227Z,55.36
2022-12-25T09:22:43.000Z,54.38
2022-12-25T09:25:27.805Z,54.34
2022-12-25T09:28:12.405Z,55.65
2022-12-25T09:30:57.325Z,56.06
2022-12-25T09:33:42.541Z,55.60
2022-12-25T09:36:27.364Z,55.44
2022-12-25T09:39:12.166Z,55.11
2022-12-25T09:41:56.947Z,54.52
2022-12-25T09:44:41.721Z,53.84
2022-12-25T09:47:26.506Z,56.68
2022-12-25T09:50:11.398Z,56.57
2022-12-25T09:52:56.097Z,54.81
2022-12-25T09:55:40.915Z,55.86
2022-12-25T09:58:25.713Z,54.30
2022-12-25T10:01:10.484Z,53.32
2022-12-25T10:03:55.171Z,54.42
2022-12-25T10:06:39.944Z,53.81
2022-12-25T10:09:24.673Z,54.53
2022-12-25T10:12:09.547Z,54.36
2022-12-25T10:14:54.389Z,53.96
2022-12-25T10:17:39.060Z,54.70
2022-12-25T10:20:23.746Z,52.99
2022-12-25T10:23:08.454Z,53.25
2022-12-25T10:25:53.390Z,52.49
2022-12-25T10:28:37.950Z,49.42
2022-12-25T10:31:22.848Z,50.49
2022-12-25T10:34:07.968Z,49.56
2022-12-25T10:36:52.691Z,49.06
2022-12-25T10:39:40.999Z,49.74
2022-12-25T10:42:30.747Z,50.97
2022-12-25T10:45:15.545Z,48.49
2022-12-25T10:48:06.657Z,50.34
2022-12-25T10:50:52.320Z,51.53
2022-12-25T10:53:36.979Z,50.27
2022-12-25T10:56:21.931Z,49.98
2022-12-25T10:59:06.697Z,51.75
2022-12-25T11:01:55.192Z,51.18
2022-12-25T11:04:40.890Z,49.79
2022-12-25T11:07:25.581Z,50.87
2022-12-25T11:10:10.515Z,50.43
2022-12-25T11:12:55.255Z,49.97
2022-12-25T11:15:40.027Z,48.10
2022-12-25T11:18:25.451Z,48.81
2022-12-25T11:21:10.251Z,48.93
2022-12-25T11:23:55.232Z,49.29
2022-12-25T11:26:39.851Z,49.75
2022-12-25T11:29:24.536Z,51.71
2022-12-25T11:32:09.313Z,51.00
2022-12-25T11:34:53.892Z,53.75
2022-12-25T11:37:38.634Z,53.41
2022-12-25T11:40:23.353Z,52.25
2022-12-25T11:43:08.513Z,53.22
2022-12-25T11:45:53.406Z,51.19
2022-12-25T11:48:38.209Z,50.58
2022-12-25T11:51:22.972Z,50.53
2022-12-25T11:54:07.736Z,48.75
2022-12-25T11:56:52.423Z,47.49
2022-12-25T11:59:37.077Z,48.32
2022-12-25T12:02:21.908Z,46.48
2022-12-25T12:05:06.987Z,47.41
2022-12-25T12:07:51.870Z,48.10
2022-12-25T12:10:36.613Z,46.56
2022-12-25T12:13:21.234Z,45.41
2022-12-25T12:16:06.066Z,47.00
2022-12-25T12:18:51.361Z,45.37
2022-12-25T12:21:36.275Z,47.86
2022-12-25T12:24:21.003Z,46.75
2022-12-25T12:27:05.667Z,45.95
2022-12-25T12:29:50.403Z,45.90
2022-12-25T12:32:35.027Z,46.28
2022-12-25T12:35:19.757Z,46.64
2022-12-25T12:38:04.465Z,47.65
2022-12-25T12:40:49.321Z,47.50
2022-12-25T12:43:34.116Z,48.61
2022-12-25T12:46:21.640Z,48.43
2022-12-25T12:49:10.752Z,48.26
2022-12-25T12:51:55.667Z,48.53
2022-12-25T12:54:40.429Z,48.94
2022-12-25T12:57:25.331Z,47.98
2022-12-25T13:00:11.055Z,48.00
2022-12-25T13:02:55.911Z,47.22
2022-12-25T13:05:41.058Z,45.93
2022-12-25T13:08:25.637Z,45.46
2022-12-25T13:11:10.392Z,46.83
2022-12-25T13:13:55.106Z,46.65
2022-12-25T13:16:40.000Z,46.93
2022-12-25T13:19:24.608Z,47.84
2022-12-25T13:22:09.285Z,45.36
2022-12-25T13:24:54.174Z,46.64
2022-12-25T13:27:39.281Z,47.09
2022-12-25T13:30:23.921Z,47.86
2022-12-25T13:33:08.819Z,48.21
2022-12-25T13:35:54.013Z,48.49
2022-12-25T13:38:38.746Z,48.86
2022-12-25T13:41:23.583Z,47.68
2022-12-25T13:44:08.217Z,47.19
2022-12-25T13:46:53.147Z,45.57
2022-12-25T13:49:37.823Z,44.58
2022-12-25T13:52:22.604Z,45.92
2022-12-25T13:55:07.207Z,46.17
2022-12-25T13:57:51.939Z,46.13
2022-12-25T14:00:36.573Z,43.86
2022-12-25T14:03:21.412Z,45.14
2022-12-25T14:06:06.079Z,44.33
2022-12-25T14:08:50.912Z,44.31
2022-12-25T14:11:35.693Z,45.58
2022-12-25T14:14:20.467Z,45.21
2022-12-25T14:17:05.275Z,44.52
2022-12-25T14:19:49.953Z,45.73
2022-12-25T14:22:34.825Z,44.11
2022-12-25T14:25:19.406Z,45.62
2022-12-25T14:28:04.126Z,44.75
2022-12-25T14:30:48.848Z,44.31
2022-12-25T14:33:33.589Z,43.62
2022-12-25T14:36:18.286Z,43.38
2022-12-25T14:39:03.096Z,43.16
2022-12-25T14:41:47.770Z,42.66
2022-12-25T14:44:32.532Z,42.53
2022-12-25T14:47:17.233Z,42.40
2022-12-25T14:50:01.949Z,42.91
2022-12-25T14:52:46.811Z,43.71
2022-12-25T14:55:31.889Z,43.49
2022-12-25T14:58:16.734Z,41.55
2022-12-25T15:01:01.452Z,42.32
2022-12-25T15:03:46.194Z,41.88
2022-12-25T15:06:30.983Z,43.98
2022-12-25T15:09:15.735Z,42.36
2022-12-25T15:12:00.475Z,43.56
2022-12-25T15:14:45.148Z,44.11
2022-12-25T15:17:30.024Z,43.42
2022-12-25T15:20:14.697Z,42.62
2022-12-25T15:23:18.948Z,44.18
2022-12-25T15:26:04.422Z,41.54
2022-12-25T15:28:49.147Z,42.53
2022-12-25T15:31:34.172Z,41.81
2022-12-25T15:34:19.366Z,43.37
2022-12-25T15:37:04.283Z,42.57
2022-12-25T15:39:49.033Z,41.11
2022-12-25T15:42:33.930Z,39.99
2022-12-25T15:45:18.697Z,40.67
2022-12-25T15:48:03.622Z,41.20
2022-12-25T15:50:48.177Z,41.05
2022-12-25T15:53:32.955Z,41.80
2022-12-25T15:56:17.705Z,42.14
2022-12-25T15:59:02.278Z,41.88
2022-12-25T16:01:47.172Z,40.75
2022-12-25T16:04:32.324Z,40.41
2022-12-25T16:07:17.242Z,41.06
2022-12-25T16:10:02.177Z,40.58
2022-12-25T16:12:47.351Z,40.24
2022-12-25T16:15:32.158Z,40.41
2022-12-25T16:18:17.320Z,40.50
2022-12-25T16:21:02.015Z,40.99
2022-12-25T16:23:46.709Z,41.21
2022-12-25T16:26:31.443Z,41.45
2022-12-25T16:29:16.568Z,39.98
2022-12-25T16:32:01.449Z,40.05
2022-12-25T16:34:46.106Z,40.53
2022-12-25T16:37:30.885Z,39.58
2022-12-25T16:40:15.652Z,39.53
2022-12-25T16:43:00.435Z,40.20
2022-12-25T16:45:45.188Z,40.49
2022-12-25T16:48:29.922Z,39.84
2022-12-25T16:51:14.809Z,40.73
2022-12-25T16:53:59.507Z,40.51
2022-12-25T16:56:44.261Z,40.39
2022-12-25T16:59:29.158Z,40.54
2022-12-25T17:02:13.995Z,40.05
2022-12-25T17:04:59.125Z,40.23
2022-12-25T17:07:44.992Z,40.62
2022-12-25T17:10:29.795Z,40.39
2022-12-25T17:13:14.550Z,40.27
2022-12-25T17:15:59.388Z,41.49
2022-12-25T17:18:44.171Z,40.95
2022-12-25T17:21:28.978Z,41.09
2022-12-25T17:24:13.755Z,41.08
2022-12-25T17:26:58.447Z,40.84
2022-12-25T17:29:43.260Z,40.04
2022-12-25T17:32:28.161Z,41.81
2022-12-25T17:35:12.843Z,39.94
2022-12-25T17:37:57.637Z,40.31
2022-12-25T17:40:42.496Z,39.32
2022-12-25T17:43:27.387Z,39.82
2022-12-25T17:46:12.387Z,39.80
2022-12-25T17:48:57.686Z,39.93
2022-12-25T17:51:42.572Z,40.48
2022-12-25T17:54:27.301Z,39.67
2022-12-25T17:57:12.187Z,39.99
2022-12-25T17:59:56.849Z,39.79
2022-12-25T18:02:42.503Z,40.23
2022-12-25T18:05:27.518Z,40.26
2022-12-25T18:08:12.287Z,40.74
2022-12-25T18:10:57.114Z,40.08
2022-12-25T18:13:41.753Z,39.74
2022-12-25T18:16:26.745Z,39.95
2022-12-25T18:19:11.711Z,39.94
2022-12-25T18:21:56.440Z,39.36
2022-12-25T18:24:41.078Z,39.47
2022-12-25T18:27:25.843Z,40.36
2022-12-25T18:30:10.636Z,39.29
2022-12-25T18:32:55.414Z,38.21
2022-12-25T18:35:40.206Z,38.21
2022-12-25T18:38:24.953Z,39.91
2022-12-25T18:41:09.798Z,39.63
2022-12-25T18:43:56.155Z,38.67
2022-12-25T18:46:41.293Z,38.90
2022-12-25T18:49:25.974Z,39.20
2022-12-25T18:52:49.405Z,38.58
2022-12-25T18:55:15.753Z,38.99
2022-12-25T18:58:00.355Z,38.58
2022-12-25T19:00:45.244Z,39.29
2022-12-25T19:03:30.505Z,38.13
2022-12-25T19:06:15.321Z,38.70
2022-12-25T19:09:00.298Z,39.71
2022-12-25T19:11:46.743Z,38.69
2022-12-25T19:14:31.980Z,37.84
2022-12-25T19:17:32.822Z,38.70
2022-12-25T19:20:17.849Z,39.97
2022-12-25T19:23:02.594Z,39.91
2022-12-25T19:25:47.454Z,39.54
2022-12-25T19:28:32.364Z,39.65
2022-12-25T19:31:17.152Z,38.59
2022-12-25T19:34:02.020Z,38.08
2022-12-25T19:36:46.634Z,38.25
2022-12-25T19:39:31.423Z,37.95
2022-12-25T19:42:16.211Z,38.34
2022-12-25T19:45:00.949Z,38.62
2022-12-25T19:47:45.728Z,38.09
2022-12-25T19:50:30.863Z,39.63
2022-12-25T19:53:15.711Z,39.31
2022-12-25T19:56:00.554Z,40.13
2022-12-25T19:58:45.432Z,39.30
2022-12-25T20:01:30.286Z,38.58
2022-12-25T20:04:15.665Z,39.50
2022-12-25T20:07:00.316Z,40.41
2022-12-25T20:09:45.147Z,39.41
2022-12-25T20:12:29.855Z,40.14
2022-12-25T20:15:14.558Z,39.90
2022-12-25T20:17:59.289Z,39.67
2022-12-25T20:20:44.135Z,39.88
2022-12-25T20:23:28.926Z,39.96
2022-12-25T20:26:13.718Z,39.71
2022-12-25T20:28:58.582Z,39.82
2022-12-25T20:31:43.321Z,39.84
2022-12-25T20:34:27.953Z,39.14
2022-12-25T20:37:12.618Z,39.74
2022-12-25T20:39:57.428Z,40.22
2022-12-25T20:42:42.111Z,39.98
2022-12-25T20:45:27.010Z,39.65
2022-12-25T20:48:11.617Z,40.19
2022-12-25T20:50:56.579Z,40.37
2022-12-25T20:53:41.338Z,39.62
2022-12-25T20:56:26.029Z,40.06
2022-12-25T20:59:10.725Z,39.96
2022-12-25T21:01:55.717Z,41.19
2022-12-25T21:04:40.939Z,41.19
2022-12-25T21:07:25.614Z,40.22
2022-12-25T21:10:10.283Z,41.28
2022-12-25T21:12:55.072Z,41.02
2022-12-25T21:15:39.809Z,40.86
2022-12-25T21:18:24.619Z,41.14
2022-12-25T21:21:09.384Z,41.70
2022-12-25T21:23:54.087Z,40.93
2022-12-25T21:26:41.817Z,41.04
2022-12-25T21:29:31.112Z,40.59
2022-12-25T21:32:16.020Z,41.14
2022-12-25T21:35:00.780Z,41.24
2022-12-25T21:37:45.696Z,41.03
2022-12-25T21:40:30.331Z,41.24
2022-12-25T21:43:15.114Z,41.54
2022-12-25T21:46:00.007Z,42.13
2022-12-25T21:48:44.725Z,41.56
2022-12-25T21:51:29.488Z,40.50
2022-12-25T21:54:14.374Z,41.61
2022-12-25T21:56:59.165Z,41.95
2022-12-25T21:59:43.855Z,41.32
2022-12-25T22:02:28.756Z,40.92
2022-12-25T22:05:14.019Z,41.44
2022-12-25T22:07:58.766Z,40.51
2022-12-25T22:10:43.467Z,41.44
2022-12-25T22:13:28.375Z,40.01
2022-12-25T22:16:13.111Z,40.72
2022-12-25T22:18:57.923Z,40.73
2022-12-25T22:21:42.685Z,41.00
2022-12-25T22:24:27.453Z,42.07
2022-12-25T22:27:12.175Z,41.87
2022-12-25T22:29:56.989Z,41.87
2022-12-25T22:32:41.886Z,41.98
2022-12-25T22:35:26.602Z,41.70
2022-12-25T22:38:11.330Z,41.91
2022-12-25T22:40:56.032Z,42.86
2022-12-25T22:44:15.271Z,42.80
2022-12-25T22:46:45.893Z,43.51
2022-12-25T22:49:31.112Z,43.64
2022-12-25T22:52:16.039Z,43.52
2022-12-25T22:55:00.745Z,42.92
2022-12-25T22:57:45.519Z,43.27
2022-12-25T23:00:30.214Z,44.31
2022-12-25T23:03:15.076Z,44.03
2022-12-25T23:06:00.351Z,44.26
2022-12-25T23:08:45.081Z,44.09
2022-12-25T23:11:29.854Z,43.21
2022-12-25T23:14:14.529Z,42.98
2022-12-25T23:16:59.266Z,44.42
2022-12-25T23:19:43.934Z,43.68
2022-12-25T23:22:28.851Z,43.65
2022-12-25T23:25:13.991Z,44.02
2022-12-25T23:27:58.700Z,44.17
2022-12-25T23:30:43.541Z,44.67
2022-12-25T23:33:28.360Z,44.66
2022-12-25T23:36:13.218Z,44.22
2022-12-25T23:39:03.090Z,45.00
2022-12-25T23:41:52.292Z,44.63
2022-12-25T23:44:37.048Z,43.86
2022-12-25T23:47:21.805Z,44.31
2022-12-25T23:50:06.594Z,44.86
2022-12-25T23:52:51.489Z,43.97
2022-12-25T23:55:36.347Z,44.89
2022-12-25T23:58:21.203Z,44.01
